sensor_id;sensor_type;location;lat;lon;timestamp;P1;durP1;ratioP1;P2;durP2;ratioP2
12385;SDS011;6257;57.634;18.310;2023-07-08T00:00:16;3.17;;;1.37;;
12385;SDS011;6257;57.634;18.310;2023-07-08T00:02:45;2.37;;;1.60;;
12385;SDS011;6257;57.634;18.310;2023-07-08T00:05:14;4.90;;;1.80;;
12385;SDS011;6257;57.634;18.310;2023-07-08T00:07:42;3.90;;;1.67;;
12385;SDS011;6257;57.634;18.310;2023-07-08T00:10:11;3.80;;;1.47;;
12385;SDS011;6257;57.634;18.310;2023-07-08T00:12:40;3.17;;;1.70;;
12385;SDS011;6257;57.634;18.310;2023-07-08T00:15:07;4.03;;;1.50;;
12385;SDS011;6257;57.634;18.310;2023-07-08T00:17:35;3.80;;;1.50;;
12385;SDS011;6257;57.634;18.310;2023-07-08T00:20:09;2.37;;;1.50;;
12385;SDS011;6257;57.634;18.310;2023-07-08T00:22:39;3.87;;;1.60;;
12385;SDS011;6257;57.634;18.310;2023-07-08T00:25:07;4.07;;;1.50;;
12385;SDS011;6257;57.634;18.310;2023-07-08T00:27:34;3.80;;;1.77;;
12385;SDS011;6257;57.634;18.310;2023-07-08T00:30:07;4.93;;;1.60;;
12385;SDS011;6257;57.634;18.310;2023-07-08T00:32:46;3.50;;;1.33;;
12385;SDS011;6257;57.634;18.310;2023-07-08T00:35:21;3.30;;;1.70;;
12385;SDS011;6257;57.634;18.310;2023-07-08T00:37:49;4.00;;;1.60;;
12385;SDS011;6257;57.634;18.310;2023-07-08T00:40:19;3.20;;;1.53;;
12385;SDS011;6257;57.634;18.310;2023-07-08T00:42:48;5.30;;;1.63;;
12385;SDS011;6257;57.634;18.310;2023-07-08T00:45:29;3.27;;;1.43;;
12385;SDS011;6257;57.634;18.310;2023-07-08T00:48:05;3.83;;;1.80;;
12385;SDS011;6257;57.634;18.310;2023-07-08T00:50:45;4.00;;;2.10;;
12385;SDS011;6257;57.634;18.310;2023-07-08T00:53:21;4.70;;;2.07;;
12385;SDS011;6257;57.634;18.310;2023-07-08T00:55:50;5.20;;;1.93;;
12385;SDS011;6257;57.634;18.310;2023-07-08T00:58:19;2.87;;;1.60;;
12385;SDS011;6257;57.634;18.310;2023-07-08T01:00:49;3.80;;;1.63;;
12385;SDS011;6257;57.634;18.310;2023-07-08T01:03:19;4.30;;;1.67;;
12385;SDS011;6257;57.634;18.310;2023-07-08T01:05:49;2.27;;;1.47;;
12385;SDS011;6257;57.634;18.310;2023-07-08T01:08:17;3.37;;;1.97;;
12385;SDS011;6257;57.634;18.310;2023-07-08T01:10:53;3.33;;;1.60;;
12385;SDS011;6257;57.634;18.310;2023-07-08T01:13:22;3.60;;;2.07;;
12385;SDS011;6257;57.634;18.310;2023-07-08T01:15:50;5.37;;;1.70;;
12385;SDS011;6257;57.634;18.310;2023-07-08T01:18:18;3.57;;;1.70;;
12385;SDS011;6257;57.634;18.310;2023-07-08T01:20:50;4.00;;;2.17;;
12385;SDS011;6257;57.634;18.310;2023-07-08T01:23:21;2.73;;;1.77;;
12385;SDS011;6257;57.634;18.310;2023-07-08T01:25:49;3.10;;;1.90;;
12385;SDS011;6257;57.634;18.310;2023-07-08T01:28:17;4.30;;;1.80;;
12385;SDS011;6257;57.634;18.310;2023-07-08T01:30:44;3.13;;;1.60;;
12385;SDS011;6257;57.634;18.310;2023-07-08T01:33:15;2.33;;;1.70;;
12385;SDS011;6257;57.634;18.310;2023-07-08T01:35:45;5.23;;;2.10;;
12385;SDS011;6257;57.634;18.310;2023-07-08T01:38:14;6.17;;;1.77;;
12385;SDS011;6257;57.634;18.310;2023-07-08T01:40:52;4.13;;;2.00;;
12385;SDS011;6257;57.634;18.310;2023-07-08T01:43:19;5.13;;;2.00;;
12385;SDS011;6257;57.634;18.310;2023-07-08T01:45:47;2.93;;;1.50;;
12385;SDS011;6257;57.634;18.310;2023-07-08T01:48:17;3.50;;;2.07;;
12385;SDS011;6257;57.634;18.310;2023-07-08T01:50:47;3.67;;;1.93;;
12385;SDS011;6257;57.634;18.310;2023-07-08T01:53:19;3.90;;;2.03;;
12385;SDS011;6257;57.634;18.310;2023-07-08T01:55:48;3.87;;;1.80;;
12385;SDS011;6257;57.634;18.310;2023-07-08T01:58:17;4.10;;;2.10;;
12385;SDS011;6257;57.634;18.310;2023-07-08T02:00:44;4.60;;;1.53;;
12385;SDS011;6257;57.634;18.310;2023-07-08T02:03:13;3.67;;;1.80;;
12385;SDS011;6257;57.634;18.310;2023-07-08T02:05:40;3.57;;;1.90;;
12385;SDS011;6257;57.634;18.310;2023-07-08T02:08:08;3.23;;;1.50;;
12385;SDS011;6257;57.634;18.310;2023-07-08T02:10:36;4.03;;;1.87;;
12385;SDS011;6257;57.634;18.310;2023-07-08T02:13:04;3.43;;;1.70;;
12385;SDS011;6257;57.634;18.310;2023-07-08T02:15:33;2.53;;;1.60;;
12385;SDS011;6257;57.634;18.310;2023-07-08T02:18:00;3.13;;;1.70;;
12385;SDS011;6257;57.634;18.310;2023-07-08T02:20:27;2.77;;;1.50;;
12385;SDS011;6257;57.634;18.310;2023-07-08T02:22:54;3.83;;;1.80;;
12385;SDS011;6257;57.634;18.310;2023-07-08T02:25:22;2.73;;;1.60;;
12385;SDS011;6257;57.634;18.310;2023-07-08T02:27:49;1.63;;;1.53;;
12385;SDS011;6257;57.634;18.310;2023-07-08T02:30:16;4.40;;;1.70;;
12385;SDS011;6257;57.634;18.310;2023-07-08T02:32:44;3.33;;;1.67;;
12385;SDS011;6257;57.634;18.310;2023-07-08T02:35:22;3.23;;;1.60;;
12385;SDS011;6257;57.634;18.310;2023-07-08T02:37:50;2.97;;;1.40;;
12385;SDS011;6257;57.634;18.310;2023-07-08T02:40:17;2.80;;;1.53;;
12385;SDS011;6257;57.634;18.310;2023-07-08T02:42:44;1.93;;;1.63;;
12385;SDS011;6257;57.634;18.310;2023-07-08T02:45:12;3.37;;;1.53;;
12385;SDS011;6257;57.634;18.310;2023-07-08T02:47:39;3.53;;;1.87;;
12385;SDS011;6257;57.634;18.310;2023-07-08T02:50:09;3.27;;;1.60;;
12385;SDS011;6257;57.634;18.310;2023-07-08T02:52:37;3.27;;;1.90;;
12385;SDS011;6257;57.634;18.310;2023-07-08T02:55:04;3.23;;;1.70;;
12385;SDS011;6257;57.634;18.310;2023-07-08T02:57:32;4.13;;;1.80;;
12385;SDS011;6257;57.634;18.310;2023-07-08T02:59:59;4.00;;;1.87;;
12385;SDS011;6257;57.634;18.310;2023-07-08T03:02:28;4.90;;;1.77;;
12385;SDS011;6257;57.634;18.310;2023-07-08T03:04:55;3.33;;;1.60;;
12385;SDS011;6257;57.634;18.310;2023-07-08T03:07:27;3.83;;;1.70;;
12385;SDS011;6257;57.634;18.310;2023-07-08T03:09:54;4.13;;;1.67;;
12385;SDS011;6257;57.634;18.310;2023-07-08T03:12:22;2.40;;;1.50;;
12385;SDS011;6257;57.634;18.310;2023-07-08T03:14:49;3.03;;;1.70;;
12385;SDS011;6257;57.634;18.310;2023-07-08T03:17:16;4.97;;;1.70;;
12385;SDS011;6257;57.634;18.310;2023-07-08T03:19:44;5.00;;;1.80;;
12385;SDS011;6257;57.634;18.310;2023-07-08T03:22:11;3.23;;;1.77;;
12385;SDS011;6257;57.634;18.310;2023-07-08T03:24:40;3.50;;;1.70;;
12385;SDS011;6257;57.634;18.310;2023-07-08T03:27:11;2.53;;;1.77;;
12385;SDS011;6257;57.634;18.310;2023-07-08T03:29:39;3.40;;;1.60;;
12385;SDS011;6257;57.634;18.310;2023-07-08T03:32:07;4.33;;;1.70;;
12385;SDS011;6257;57.634;18.310;2023-07-08T03:34:36;3.73;;;1.50;;
12385;SDS011;6257;57.634;18.310;2023-07-08T03:37:04;2.07;;;1.50;;
12385;SDS011;6257;57.634;18.310;2023-07-08T03:39:31;3.50;;;1.80;;
12385;SDS011;6257;57.634;18.310;2023-07-08T03:42:00;2.83;;;1.50;;
12385;SDS011;6257;57.634;18.310;2023-07-08T03:44:29;3.53;;;1.60;;
12385;SDS011;6257;57.634;18.310;2023-07-08T03:46:56;1.90;;;1.50;;
12385;SDS011;6257;57.634;18.310;2023-07-08T03:49:23;2.20;;;1.60;;
12385;SDS011;6257;57.634;18.310;2023-07-08T03:51:51;2.20;;;1.50;;
12385;SDS011;6257;57.634;18.310;2023-07-08T03:54:20;2.87;;;1.70;;
12385;SDS011;6257;57.634;18.310;2023-07-08T03:56:48;4.17;;;1.70;;
12385;SDS011;6257;57.634;18.310;2023-07-08T03:59:16;2.63;;;1.67;;
12385;SDS011;6257;57.634;18.310;2023-07-08T04:01:44;4.17;;;1.80;;
12385;SDS011;6257;57.634;18.310;2023-07-08T04:04:12;4.00;;;1.70;;
12385;SDS011;6257;57.634;18.310;2023-07-08T04:06:40;3.30;;;1.80;;
12385;SDS011;6257;57.634;18.310;2023-07-08T04:09:08;3.67;;;1.90;;
12385;SDS011;6257;57.634;18.310;2023-07-08T04:11:35;2.93;;;1.40;;
12385;SDS011;6257;57.634;18.310;2023-07-08T04:14:03;3.50;;;1.80;;
12385;SDS011;6257;57.634;18.310;2023-07-08T04:16:44;4.80;;;1.93;;
12385;SDS011;6257;57.634;18.310;2023-07-08T04:19:14;4.37;;;1.80;;
12385;SDS011;6257;57.634;18.310;2023-07-08T04:21:42;7.27;;;1.87;;
12385;SDS011;6257;57.634;18.310;2023-07-08T04:24:10;2.90;;;1.90;;
12385;SDS011;6257;57.634;18.310;2023-07-08T04:26:39;4.53;;;1.80;;
12385;SDS011;6257;57.634;18.310;2023-07-08T04:29:09;3.67;;;2.10;;
12385;SDS011;6257;57.634;18.310;2023-07-08T04:31:39;4.43;;;1.93;;
12385;SDS011;6257;57.634;18.310;2023-07-08T04:34:07;4.37;;;1.90;;
12385;SDS011;6257;57.634;18.310;2023-07-08T04:36:35;6.60;;;2.20;;
12385;SDS011;6257;57.634;18.310;2023-07-08T04:39:02;3.17;;;1.90;;
12385;SDS011;6257;57.634;18.310;2023-07-08T04:41:31;6.63;;;2.00;;
12385;SDS011;6257;57.634;18.310;2023-07-08T04:43:58;6.73;;;2.37;;
12385;SDS011;6257;57.634;18.310;2023-07-08T04:46:30;2.57;;;1.60;;
12385;SDS011;6257;57.634;18.310;2023-07-08T04:49:04;5.13;;;1.93;;
12385;SDS011;6257;57.634;18.310;2023-07-08T04:51:32;5.30;;;1.90;;
12385;SDS011;6257;57.634;18.310;2023-07-08T04:53:59;3.67;;;2.13;;
12385;SDS011;6257;57.634;18.310;2023-07-08T04:56:34;3.30;;;1.97;;
12385;SDS011;6257;57.634;18.310;2023-07-08T04:59:03;8.17;;;2.10;;
12385;SDS011;6257;57.634;18.310;2023-07-08T05:01:30;4.53;;;1.70;;
12385;SDS011;6257;57.634;18.310;2023-07-08T05:03:58;5.47;;;2.00;;
12385;SDS011;6257;57.634;18.310;2023-07-08T05:06:27;2.43;;;1.80;;
12385;SDS011;6257;57.634;18.310;2023-07-08T05:08:54;4.53;;;1.80;;
12385;SDS011;6257;57.634;18.310;2023-07-08T05:11:21;4.13;;;2.10;;
12385;SDS011;6257;57.634;18.310;2023-07-08T05:13:50;4.57;;;2.30;;
12385;SDS011;6257;57.634;18.310;2023-07-08T05:16:18;3.37;;;1.90;;
12385;SDS011;6257;57.634;18.310;2023-07-08T05:18:45;4.37;;;1.83;;
12385;SDS011;6257;57.634;18.310;2023-07-08T05:21:12;6.20;;;2.10;;
12385;SDS011;6257;57.634;18.310;2023-07-08T05:23:41;4.33;;;2.00;;
12385;SDS011;6257;57.634;18.310;2023-07-08T05:26:09;3.30;;;1.77;;
12385;SDS011;6257;57.634;18.310;2023-07-08T05:28:36;2.87;;;2.00;;
12385;SDS011;6257;57.634;18.310;2023-07-08T05:31:04;3.73;;;2.03;;
12385;SDS011;6257;57.634;18.310;2023-07-08T05:33:31;7.00;;;2.27;;
12385;SDS011;6257;57.634;18.310;2023-07-08T05:36:00;2.93;;;1.80;;
12385;SDS011;6257;57.634;18.310;2023-07-08T05:38:27;4.60;;;2.03;;
12385;SDS011;6257;57.634;18.310;2023-07-08T05:40:57;5.17;;;1.93;;
12385;SDS011;6257;57.634;18.310;2023-07-08T05:43:25;3.10;;;1.90;;
12385;SDS011;6257;57.634;18.310;2023-07-08T05:45:56;5.40;;;2.23;;
12385;SDS011;6257;57.634;18.310;2023-07-08T05:48:24;4.13;;;1.90;;
12385;SDS011;6257;57.634;18.310;2023-07-08T05:50:51;6.03;;;2.10;;
12385;SDS011;6257;57.634;18.310;2023-07-08T05:53:18;5.60;;;2.33;;
12385;SDS011;6257;57.634;18.310;2023-07-08T05:55:47;7.10;;;2.47;;
12385;SDS011;6257;57.634;18.310;2023-07-08T05:58:20;3.80;;;2.20;;
12385;SDS011;6257;57.634;18.310;2023-07-08T06:00:54;2.10;;;1.90;;
12385;SDS011;6257;57.634;18.310;2023-07-08T06:03:22;4.57;;;1.93;;
12385;SDS011;6257;57.634;18.310;2023-07-08T06:05:49;4.47;;;2.17;;
12385;SDS011;6257;57.634;18.310;2023-07-08T06:08:16;4.60;;;2.10;;
12385;SDS011;6257;57.634;18.310;2023-07-08T06:10:44;4.10;;;1.83;;
12385;SDS011;6257;57.634;18.310;2023-07-08T06:13:11;7.33;;;2.37;;
12385;SDS011;6257;57.634;18.310;2023-07-08T06:15:41;6.23;;;2.00;;
12385;SDS011;6257;57.634;18.310;2023-07-08T06:18:09;6.77;;;2.50;;
12385;SDS011;6257;57.634;18.310;2023-07-08T06:20:36;7.33;;;2.40;;
12385;SDS011;6257;57.634;18.310;2023-07-08T06:23:03;4.10;;;2.10;;
12385;SDS011;6257;57.634;18.310;2023-07-08T06:25:31;2.73;;;2.13;;
12385;SDS011;6257;57.634;18.310;2023-07-08T06:27:58;5.40;;;1.90;;
12385;SDS011;6257;57.634;18.310;2023-07-08T06:30:26;4.40;;;2.10;;
12385;SDS011;6257;57.634;18.310;2023-07-08T06:32:54;3.37;;;2.10;;
12385;SDS011;6257;57.634;18.310;2023-07-08T06:35:21;2.80;;;2.27;;
12385;SDS011;6257;57.634;18.310;2023-07-08T06:37:49;3.47;;;2.17;;
12385;SDS011;6257;57.634;18.310;2023-07-08T06:40:16;7.73;;;2.40;;
12385;SDS011;6257;57.634;18.310;2023-07-08T06:42:44;6.97;;;2.30;;
12385;SDS011;6257;57.634;18.310;2023-07-08T06:45:12;5.80;;;2.40;;
12385;SDS011;6257;57.634;18.310;2023-07-08T06:47:39;7.30;;;2.50;;
12385;SDS011;6257;57.634;18.310;2023-07-08T06:50:09;4.20;;;2.23;;
12385;SDS011;6257;57.634;18.310;2023-07-08T06:52:36;5.10;;;2.40;;
12385;SDS011;6257;57.634;18.310;2023-07-08T06:55:04;4.80;;;2.47;;
12385;SDS011;6257;57.634;18.310;2023-07-08T06:57:32;4.27;;;2.40;;
12385;SDS011;6257;57.634;18.310;2023-07-08T07:00:00;7.03;;;2.60;;
12385;SDS011;6257;57.634;18.310;2023-07-08T07:02:28;3.73;;;2.20;;
12385;SDS011;6257;57.634;18.310;2023-07-08T07:04:55;3.67;;;1.97;;
12385;SDS011;6257;57.634;18.310;2023-07-08T07:07:23;5.27;;;2.03;;
12385;SDS011;6257;57.634;18.310;2023-07-08T07:09:51;6.53;;;2.10;;
12385;SDS011;6257;57.634;18.310;2023-07-08T07:12:18;4.60;;;2.10;;
12385;SDS011;6257;57.634;18.310;2023-07-08T07:14:45;3.00;;;1.80;;
12385;SDS011;6257;57.634;18.310;2023-07-08T07:17:12;4.30;;;2.20;;
12385;SDS011;6257;57.634;18.310;2023-07-08T07:19:39;5.97;;;2.13;;
12385;SDS011;6257;57.634;18.310;2023-07-08T07:22:06;4.83;;;2.23;;
12385;SDS011;6257;57.634;18.310;2023-07-08T07:24:35;3.93;;;2.03;;
12385;SDS011;6257;57.634;18.310;2023-07-08T07:27:02;4.67;;;2.17;;
12385;SDS011;6257;57.634;18.310;2023-07-08T07:29:37;4.73;;;2.13;;
12385;SDS011;6257;57.634;18.310;2023-07-08T07:32:07;5.17;;;2.23;;
12385;SDS011;6257;57.634;18.310;2023-07-08T07:34:34;3.50;;;2.10;;
12385;SDS011;6257;57.634;18.310;2023-07-08T07:37:01;3.87;;;2.10;;
12385;SDS011;6257;57.634;18.310;2023-07-08T07:39:29;6.67;;;2.50;;
12385;SDS011;6257;57.634;18.310;2023-07-08T07:41:57;7.33;;;2.07;;
12385;SDS011;6257;57.634;18.310;2023-07-08T07:44:24;5.03;;;2.17;;
12385;SDS011;6257;57.634;18.310;2023-07-08T07:46:52;4.73;;;2.20;;
12385;SDS011;6257;57.634;18.310;2023-07-08T07:49:19;3.23;;;2.10;;
12385;SDS011;6257;57.634;18.310;2023-07-08T07:51:47;3.17;;;2.20;;
12385;SDS011;6257;57.634;18.310;2023-07-08T07:54:14;4.27;;;2.20;;
12385;SDS011;6257;57.634;18.310;2023-07-08T07:56:42;7.33;;;2.37;;
12385;SDS011;6257;57.634;18.310;2023-07-08T07:59:10;3.40;;;2.13;;
12385;SDS011;6257;57.634;18.310;2023-07-08T08:01:38;4.90;;;2.20;;
12385;SDS011;6257;57.634;18.310;2023-07-08T08:04:07;4.00;;;2.10;;
12385;SDS011;6257;57.634;18.310;2023-07-08T08:06:34;6.43;;;2.20;;
12385;SDS011;6257;57.634;18.310;2023-07-08T08:09:01;4.97;;;2.50;;
12385;SDS011;6257;57.634;18.310;2023-07-08T08:11:29;4.47;;;2.13;;
12385;SDS011;6257;57.634;18.310;2023-07-08T08:13:57;4.83;;;2.40;;
12385;SDS011;6257;57.634;18.310;2023-07-08T08:16:26;3.80;;;2.27;;
12385;SDS011;6257;57.634;18.310;2023-07-08T08:18:53;5.33;;;2.50;;
12385;SDS011;6257;57.634;18.310;2023-07-08T08:21:20;7.30;;;2.50;;
12385;SDS011;6257;57.634;18.310;2023-07-08T08:23:47;5.03;;;2.73;;
12385;SDS011;6257;57.634;18.310;2023-07-08T08:26:15;4.97;;;2.70;;
12385;SDS011;6257;57.634;18.310;2023-07-08T08:28:42;5.40;;;2.43;;
12385;SDS011;6257;57.634;18.310;2023-07-08T08:31:09;5.60;;;2.50;;
12385;SDS011;6257;57.634;18.310;2023-07-08T08:33:37;3.73;;;2.17;;
12385;SDS011;6257;57.634;18.310;2023-07-08T08:36:04;3.57;;;2.20;;
12385;SDS011;6257;57.634;18.310;2023-07-08T08:38:31;6.07;;;2.67;;
12385;SDS011;6257;57.634;18.310;2023-07-08T08:41:02;5.30;;;2.30;;
12385;SDS011;6257;57.634;18.310;2023-07-08T08:43:31;6.23;;;2.43;;
12385;SDS011;6257;57.634;18.310;2023-07-08T08:46:04;6.83;;;2.50;;
12385;SDS011;6257;57.634;18.310;2023-07-08T08:48:38;4.83;;;2.37;;
12385;SDS011;6257;57.634;18.310;2023-07-08T08:51:10;5.77;;;2.57;;
12385;SDS011;6257;57.634;18.310;2023-07-08T08:53:41;4.53;;;2.60;;
12385;SDS011;6257;57.634;18.310;2023-07-08T08:56:09;5.20;;;2.63;;
12385;SDS011;6257;57.634;18.310;2023-07-08T08:58:41;5.70;;;2.40;;
12385;SDS011;6257;57.634;18.310;2023-07-08T09:01:12;4.97;;;2.13;;
12385;SDS011;6257;57.634;18.310;2023-07-08T09:03:46;6.90;;;2.60;;
12385;SDS011;6257;57.634;18.310;2023-07-08T09:06:17;5.13;;;2.50;;
12385;SDS011;6257;57.634;18.310;2023-07-08T09:08:46;4.80;;;2.37;;
12385;SDS011;6257;57.634;18.310;2023-07-08T09:11:21;5.70;;;2.97;;
12385;SDS011;6257;57.634;18.310;2023-07-08T09:14:06;4.63;;;2.70;;
12385;SDS011;6257;57.634;18.310;2023-07-08T09:16:42;3.10;;;2.30;;
12385;SDS011;6257;57.634;18.310;2023-07-08T09:19:18;6.10;;;2.67;;
12385;SDS011;6257;57.634;18.310;2023-07-08T09:21:51;4.13;;;2.17;;
12385;SDS011;6257;57.634;18.310;2023-07-08T09:24:24;6.90;;;2.90;;
12385;SDS011;6257;57.634;18.310;2023-07-08T09:27:04;3.27;;;2.57;;
12385;SDS011;6257;57.634;18.310;2023-07-08T09:29:32;5.10;;;2.50;;
12385;SDS011;6257;57.634;18.310;2023-07-08T09:31:59;4.73;;;2.77;;
12385;SDS011;6257;57.634;18.310;2023-07-08T09:34:40;4.93;;;2.67;;
12385;SDS011;6257;57.634;18.310;2023-07-08T09:39:56;4.83;;;2.87;;
12385;SDS011;6257;57.634;18.310;2023-07-08T09:42:25;5.37;;;3.07;;
12385;SDS011;6257;57.634;18.310;2023-07-08T09:44:55;3.83;;;2.87;;
12385;SDS011;6257;57.634;18.310;2023-07-08T09:47:25;6.23;;;2.83;;
12385;SDS011;6257;57.634;18.310;2023-07-08T09:49:57;4.53;;;2.60;;
12385;SDS011;6257;57.634;18.310;2023-07-08T09:52:26;3.70;;;2.50;;
12385;SDS011;6257;57.634;18.310;2023-07-08T09:54:56;3.77;;;2.47;;
12385;SDS011;6257;57.634;18.310;2023-07-08T09:57:25;4.43;;;2.70;;
12385;SDS011;6257;57.634;18.310;2023-07-08T09:59:56;5.03;;;2.60;;
12385;SDS011;6257;57.634;18.310;2023-07-08T10:02:28;4.27;;;2.63;;
12385;SDS011;6257;57.634;18.310;2023-07-08T10:04:59;4.17;;;2.60;;
12385;SDS011;6257;57.634;18.310;2023-07-08T10:07:29;3.63;;;2.80;;
12385;SDS011;6257;57.634;18.310;2023-07-08T10:09:58;4.80;;;2.90;;
12385;SDS011;6257;57.634;18.310;2023-07-08T10:12:28;4.43;;;3.20;;
12385;SDS011;6257;57.634;18.310;2023-07-08T10:14:59;5.50;;;3.10;;
12385;SDS011;6257;57.634;18.310;2023-07-08T10:17:29;4.93;;;2.53;;
12385;SDS011;6257;57.634;18.310;2023-07-08T10:19:59;6.03;;;2.80;;
12385;SDS011;6257;57.634;18.310;2023-07-08T10:22:30;3.87;;;2.77;;
12385;SDS011;6257;57.634;18.310;2023-07-08T10:25:16;4.97;;;2.57;;
12385;SDS011;6257;57.634;18.310;2023-07-08T10:27:57;7.73;;;3.00;;
12385;SDS011;6257;57.634;18.310;2023-07-08T10:30:36;4.47;;;2.67;;
12385;SDS011;6257;57.634;18.310;2023-07-08T10:36:27;3.70;;;2.53;;
12385;SDS011;6257;57.634;18.310;2023-07-08T10:39:19;4.53;;;2.90;;
12385;SDS011;6257;57.634;18.310;2023-07-08T10:42:09;5.37;;;2.87;;
12385;SDS011;6257;57.634;18.310;2023-07-08T10:44:50;4.90;;;3.00;;
12385;SDS011;6257;57.634;18.310;2023-07-08T10:47:28;5.90;;;2.80;;
12385;SDS011;6257;57.634;18.310;2023-07-08T10:50:20;4.60;;;2.57;;
12385;SDS011;6257;57.634;18.310;2023-07-08T10:53:16;5.10;;;3.03;;
12385;SDS011;6257;57.634;18.310;2023-07-08T10:55:53;5.20;;;2.90;;
12385;SDS011;6257;57.634;18.310;2023-07-08T10:58:28;6.77;;;3.00;;
12385;SDS011;6257;57.634;18.310;2023-07-08T11:01:21;5.63;;;3.00;;
12385;SDS011;6257;57.634;18.310;2023-07-08T11:04:12;4.30;;;3.00;;
12385;SDS011;6257;57.634;18.310;2023-07-08T11:06:50;5.90;;;3.00;;
12385;SDS011;6257;57.634;18.310;2023-07-08T11:09:23;4.20;;;2.93;;
12385;SDS011;6257;57.634;18.310;2023-07-08T11:11:55;5.50;;;3.00;;
12385;SDS011;6257;57.634;18.310;2023-07-08T11:14:27;3.33;;;2.90;;
12385;SDS011;6257;57.634;18.310;2023-07-08T11:17:02;5.30;;;2.93;;
12385;SDS011;6257;57.634;18.310;2023-07-08T11:19:37;6.03;;;3.20;;
12385;SDS011;6257;57.634;18.310;2023-07-08T11:22:09;4.23;;;2.80;;
12385;SDS011;6257;57.634;18.310;2023-07-08T11:24:39;5.70;;;2.93;;
12385;SDS011;6257;57.634;18.310;2023-07-08T11:27:11;3.97;;;2.97;;
12385;SDS011;6257;57.634;18.310;2023-07-08T11:29:45;3.63;;;2.70;;
12385;SDS011;6257;57.634;18.310;2023-07-08T11:32:16;4.47;;;2.87;;
12385;SDS011;6257;57.634;18.310;2023-07-08T11:34:47;5.47;;;3.00;;
12385;SDS011;6257;57.634;18.310;2023-07-08T11:37:16;5.30;;;3.47;;
12385;SDS011;6257;57.634;18.310;2023-07-08T11:39:52;3.83;;;3.13;;
12385;SDS011;6257;57.634;18.310;2023-07-08T11:42:21;3.53;;;3.10;;
12385;SDS011;6257;57.634;18.310;2023-07-08T11:44:51;4.07;;;3.13;;
12385;SDS011;6257;57.634;18.310;2023-07-08T11:47:19;3.73;;;2.73;;
12385;SDS011;6257;57.634;18.310;2023-07-08T11:49:51;7.63;;;3.20;;
12385;SDS011;6257;57.634;18.310;2023-07-08T11:52:20;4.87;;;3.00;;
12385;SDS011;6257;57.634;18.310;2023-07-08T11:54:56;3.37;;;2.50;;
12385;SDS011;6257;57.634;18.310;2023-07-08T11:57:29;3.70;;;2.43;;
12385;SDS011;6257;57.634;18.310;2023-07-08T12:00:11;5.23;;;3.10;;
12385;SDS011;6257;57.634;18.310;2023-07-08T12:02:50;7.27;;;3.03;;
12385;SDS011;6257;57.634;18.310;2023-07-08T12:05:33;6.67;;;3.00;;
12385;SDS011;6257;57.634;18.310;2023-07-08T12:08:02;6.43;;;3.03;;
12385;SDS011;6257;57.634;18.310;2023-07-08T12:10:39;5.30;;;2.90;;
12385;SDS011;6257;57.634;18.310;2023-07-08T12:13:09;4.60;;;3.30;;
12385;SDS011;6257;57.634;18.310;2023-07-08T12:15:39;3.40;;;2.80;;
12385;SDS011;6257;57.634;18.310;2023-07-08T12:18:11;4.20;;;3.07;;
12385;SDS011;6257;57.634;18.310;2023-07-08T12:20:42;4.73;;;3.07;;
12385;SDS011;6257;57.634;18.310;2023-07-08T12:23:13;4.57;;;2.80;;
12385;SDS011;6257;57.634;18.310;2023-07-08T12:25:42;3.40;;;2.60;;
12385;SDS011;6257;57.634;18.310;2023-07-08T12:28:09;4.10;;;3.03;;
12385;SDS011;6257;57.634;18.310;2023-07-08T12:30:38;4.00;;;2.57;;
12385;SDS011;6257;57.634;18.310;2023-07-08T12:33:08;3.77;;;2.43;;
12385;SDS011;6257;57.634;18.310;2023-07-08T12:35:38;4.70;;;2.60;;
12385;SDS011;6257;57.634;18.310;2023-07-08T12:38:12;4.33;;;2.67;;
12385;SDS011;6257;57.634;18.310;2023-07-08T12:40:46;4.27;;;2.70;;
12385;SDS011;6257;57.634;18.310;2023-07-08T12:43:13;2.43;;;2.23;;
12385;SDS011;6257;57.634;18.310;2023-07-08T12:45:42;3.03;;;2.43;;
12385;SDS011;6257;57.634;18.310;2023-07-08T12:48:12;3.40;;;2.63;;
12385;SDS011;6257;57.634;18.310;2023-07-08T12:50:39;4.17;;;2.73;;
12385;SDS011;6257;57.634;18.310;2023-07-08T12:53:07;5.50;;;2.80;;
12385;SDS011;6257;57.634;18.310;2023-07-08T12:55:35;5.57;;;2.67;;
12385;SDS011;6257;57.634;18.310;2023-07-08T12:58:08;3.83;;;2.50;;
12385;SDS011;6257;57.634;18.310;2023-07-08T13:01:02;3.83;;;2.23;;
12385;SDS011;6257;57.634;18.310;2023-07-08T13:03:30;5.67;;;2.73;;
12385;SDS011;6257;57.634;18.310;2023-07-08T13:06:07;4.13;;;2.57;;
12385;SDS011;6257;57.634;18.310;2023-07-08T13:08:39;3.30;;;2.40;;
12385;SDS011;6257;57.634;18.310;2023-07-08T13:11:11;3.30;;;2.67;;
12385;SDS011;6257;57.634;18.310;2023-07-08T13:13:44;3.10;;;2.40;;
12385;SDS011;6257;57.634;18.310;2023-07-08T13:16:15;3.77;;;2.30;;
12385;SDS011;6257;57.634;18.310;2023-07-08T13:18:42;4.77;;;2.37;;
12385;SDS011;6257;57.634;18.310;2023-07-08T13:21:11;4.07;;;2.17;;
12385;SDS011;6257;57.634;18.310;2023-07-08T13:23:40;4.10;;;2.60;;
12385;SDS011;6257;57.634;18.310;2023-07-08T13:26:14;5.97;;;3.40;;
12385;SDS011;6257;57.634;18.310;2023-07-08T13:28:44;3.93;;;3.20;;
12385;SDS011;6257;57.634;18.310;2023-07-08T13:31:13;4.67;;;2.70;;
12385;SDS011;6257;57.634;18.310;2023-07-08T13:33:45;3.57;;;2.93;;
12385;SDS011;6257;57.634;18.310;2023-07-08T13:36:13;4.20;;;2.27;;
12385;SDS011;6257;57.634;18.310;2023-07-08T13:38:45;4.20;;;2.40;;
12385;SDS011;6257;57.634;18.310;2023-07-08T13:41:16;3.13;;;2.50;;
12385;SDS011;6257;57.634;18.310;2023-07-08T13:43:48;3.33;;;2.43;;
12385;SDS011;6257;57.634;18.310;2023-07-08T13:46:27;4.03;;;2.33;;
12385;SDS011;6257;57.634;18.310;2023-07-08T13:48:55;4.73;;;2.23;;
12385;SDS011;6257;57.634;18.310;2023-07-08T13:51:28;2.93;;;2.20;;
12385;SDS011;6257;57.634;18.310;2023-07-08T13:53:58;3.70;;;2.07;;
12385;SDS011;6257;57.634;18.310;2023-07-08T13:56:28;3.97;;;2.40;;
12385;SDS011;6257;57.634;18.310;2023-07-08T13:59:02;2.47;;;2.13;;
12385;SDS011;6257;57.634;18.310;2023-07-08T14:01:31;3.57;;;2.40;;
12385;SDS011;6257;57.634;18.310;2023-07-08T14:04:00;2.53;;;2.23;;
12385;SDS011;6257;57.634;18.310;2023-07-08T14:06:29;2.67;;;2.20;;
12385;SDS011;6257;57.634;18.310;2023-07-08T14:08:59;4.27;;;2.60;;
12385;SDS011;6257;57.634;18.310;2023-07-08T14:11:30;3.17;;;2.40;;
12385;SDS011;6257;57.634;18.310;2023-07-08T14:13:57;2.53;;;2.33;;
12385;SDS011;6257;57.634;18.310;2023-07-08T14:16:26;2.97;;;2.50;;
12385;SDS011;6257;57.634;18.310;2023-07-08T14:18:55;3.67;;;2.50;;
12385;SDS011;6257;57.634;18.310;2023-07-08T14:21:24;5.57;;;2.40;;
12385;SDS011;6257;57.634;18.310;2023-07-08T14:23:51;2.80;;;2.10;;
12385;SDS011;6257;57.634;18.310;2023-07-08T14:26:19;3.53;;;2.40;;
12385;SDS011;6257;57.634;18.310;2023-07-08T14:28:46;2.60;;;1.97;;
12385;SDS011;6257;57.634;18.310;2023-07-08T14:31:19;3.30;;;2.20;;
12385;SDS011;6257;57.634;18.310;2023-07-08T14:33:49;2.60;;;2.10;;
12385;SDS011;6257;57.634;18.310;2023-07-08T14:36:17;2.40;;;1.80;;
12385;SDS011;6257;57.634;18.310;2023-07-08T14:38:44;2.77;;;2.10;;
12385;SDS011;6257;57.634;18.310;2023-07-08T14:41:11;2.90;;;2.60;;
12385;SDS011;6257;57.634;18.310;2023-07-08T14:43:38;2.90;;;2.20;;
12385;SDS011;6257;57.634;18.310;2023-07-08T14:46:08;3.20;;;2.40;;
12385;SDS011;6257;57.634;18.310;2023-07-08T14:48:36;3.27;;;2.37;;
12385;SDS011;6257;57.634;18.310;2023-07-08T14:51:05;2.97;;;2.00;;
12385;SDS011;6257;57.634;18.310;2023-07-08T14:53:33;3.03;;;2.20;;
12385;SDS011;6257;57.634;18.310;2023-07-08T14:56:00;4.43;;;2.20;;
12385;SDS011;6257;57.634;18.310;2023-07-08T14:58:32;3.30;;;2.53;;
12385;SDS011;6257;57.634;18.310;2023-07-08T15:01:01;2.80;;;2.23;;
12385;SDS011;6257;57.634;18.310;2023-07-08T15:03:38;4.37;;;2.40;;
12385;SDS011;6257;57.634;18.310;2023-07-08T15:06:08;4.37;;;2.33;;
12385;SDS011;6257;57.634;18.310;2023-07-08T15:08:37;4.13;;;2.33;;
12385;SDS011;6257;57.634;18.310;2023-07-08T15:11:04;2.53;;;2.10;;